Buoy 46762

sailwx.info

Track history (hours):
 
Tides and Currents Weather Stations Pressure Air Temp Water Temp Dewpoint Dewpoint Depression Visibility Wind Speed Wind Dir Waves Ship Positions

Drifting buoy 46762

Last reported at 2014-Jul-30 18:00 UTC. Time now 2014-Jul-30 19:17 UTC.
Position N 54°06' W 143°38'.

Barometer 1015.4 mb
Water temperature 13.2 ° C

Date/timePositionNaut miles runAvg speedWind from/ knotsBaromVisibWave heightAir tempDewpointWater temp
2014-Jul-30 18:00N 54°06' W 143°38'0 0.0 1015.4 13.2
2014-Jul-30 17:00N 54°06' W 143°38'0 0.5 1015.2 13.2
2014-Jul-30 16:00N 54°05' W 143°38'0 0.5 1015.1 13.3
2014-Jul-30 15:00N 54°05' W 143°37'2 1.7 1014.9 13.3
2014-Jul-30 14:00N 54°06' W 143°40'1 1.4 1014.6 13.4
2014-Jul-30 13:00N 54°05' W 143°41'0 0.0 1014.7 13.4
2014-Jul-30 12:00N 54°05' W 143°41'1 0.3 1014.5 13.4
2014-Jul-30 10:00N 54°05' W 143°41'1 0.4 1014.6 13.4
2014-Jul-30 08:00N 54°06' W 143°41'0 0.4 1014.7 13.5
2014-Jul-30 07:00N 54°05' W 143°41'1 1.1 1014.8 13.5
2014-Jul-30 06:00N 54°06' W 143°39'1 1.3 1014.9 13.5
2014-Jul-30 05:00N 54°06' W 143°41'1 0.5 1014.6 13.5
2014-Jul-30 02:00N 54°06' W 143°43'1 1.0 1014.9 13.5
2014-Jul-30 01:00N 54°06' W 143°42'1 1.1 1014.7 13.5
2014-Jul-30 00:00N 54°05' W 143°42'1 0.8 1014.7 13.5
2014-Jul-29 23:00N 54°05' W 143°41'0 0.0 1014.6 13.6
2014-Jul-29 22:00N 54°05' W 143°41'1 0.3 1014.7 13.6
2014-Jul-29 18:00N 54°06' W 143°42'1 1.4 1014.1 13.6
2014-Jul-29 17:00N 54°06' W 143°39'2 1.9 1013.8 13.8
2014-Jul-29 16:00N 54°07' W 143°42'1 1.2 1013.6 14.0
2014-Jul-29 15:00N 54°07' W 143°41'0 0.0 1013.6 14.1
2014-Jul-29 14:00N 54°07' W 143°41'1 0.5 1013.5 14.3
2014-Jul-29 13:00N 54°07' W 143°41'1 0.7 1013.6 14.4
2014-Jul-29 12:00N 54°07' W 143°42'1 0.2 1013.9 14.4
2014-Jul-29 07:00N 54°06' W 143°42'0 0.1 1015.6 14.4
2014-Jul-29 06:00N 54°06' W 143°42'1 1.5 1015.8 14.5
2014-Jul-29 05:00N 54°06' W 143°40'1 1.0 1015.9 14.6
2014-Jul-29 04:00N 54°06' W 143°42'2 2.2 1015.8 14.7
2014-Jul-29 03:00N 54°07' W 143°38'0 0.0 1016.0 14.7
2014-Jul-29 02:00N 54°07' W 143°38'2 1.7 1016.1 14.7
2014-Jul-29 01:00N 54°07' W 143°41'1 0.8 1016.0 14.7
2014-Jul-29 00:00N 54°07' W 143°40'1 0.8 1015.9 14.7
2014-Jul-28 23:00N 54°07' W 143°41'0 0.2 1016.0 14.6
2014-Jul-28 22:00N 54°07' W 143°42'1 1.2 1015.9 14.5
2014-Jul-28 21:00N 54°06' W 143°43'1 1.0 1015.8 14.3
2014-Jul-28 20:00N 54°07' W 143°42'1 1.1 1015.8 14.2
2014-Jul-28 19:00N 54°06' W 143°43'1 1.4 1015.9 14.0
2014-Jul-28 18:00N 54°05' W 143°41'1 0.4 1015.8 14.2
2014-Jul-28 15:00N 54°06' W 143°41'1 0.5 1015.1 14.4
2014-Jul-28 13:00N 54°07' W 143°40'1 1.0 1014.7 14.3
2014-Jul-28 12:00N 54°08' W 143°41'2 1.6 1014.6 14.4
2014-Jul-28 11:00N 54°08' W 143°44'2 0.8 1014.6 14.8
2014-Jul-28 09:00N 54°08' W 143°41'1 0.5 1014.6 15.2
2014-Jul-28 06:00N 54°07' W 143°40'1 1.0 1014.9 15.2
2014-Jul-28 05:00N 54°07' W 143°42'1 0.5 1014.7 15.5
2014-Jul-28 04:00N 54°07' W 143°41'0 0.0 1014.5 15.6
2014-Jul-28 03:00N 54°07' W 143°41'0 0.3 1014.6 15.5
2014-Jul-28 02:00N 54°07' W 143°41'0 0.4 1014.7 15.1
2014-Jul-28 01:00N 54°07' W 143°41'0 0.4 1014.8 15.0
2014-Jul-28 00:00N 54°07' W 143°40'0 0.1 1014.8 14.8
2014-Jul-27 23:00N 54°07' W 143°40'0 0.4 1014.7 14.6
2014-Jul-27 22:00N 54°07' W 143°40'1 0.6 1014.6 14.6
2014-Jul-27 21:00N 54°06' W 143°39'1 0.7 1014.4 14.4
2014-Jul-27 20:00N 54°07' W 143°41'2 2.2 1014.3 14.3
2014-Jul-27 19:00N 54°08' W 143°38'0 0.0 1014.3 14.4
2014-Jul-27 18:00N 54°08' W 143°38'2 1.9 1014.1 14.2
2014-Jul-27 17:00N 54°07' W 143°40'1 0.9 1013.9 14.0
2014-Jul-27 16:00N 54°07' W 143°42'2 1.6 1013.8 14.0
2014-Jul-27 15:00N 54°06' W 143°39'1 0.7 1013.4 14.0
2014-Jul-27 14:00N 54°07' W 143°40'0 0.1 1013.2 14.0
2014-Jul-27 13:00N 54°07' W 143°40'1 0.9 1013.0 14.1
2014-Jul-27 12:00N 54°07' W 143°42'1 1.3 1012.8 14.2
2014-Jul-27 11:00N 54°06' W 143°41'0 0.0 1012.7 14.4
2014-Jul-27 09:00N 54°06' W 143°41'0 0.1 1012.6 14.8
2014-Jul-27 07:00N 54°06' W 143°40'0 0.2 1012.6 14.9
2014-Jul-27 06:00N 54°06' W 143°40'0 0.4 1012.3 14.9
2014-Jul-27 05:00N 54°06' W 143°39'1 0.6 1012.1 14.9
2014-Jul-27 04:00N 54°06' W 143°40'1 1.1 1011.9 15.1
2014-Jul-27 03:00N 54°06' W 143°38'1 0.7 1011.8 15.0
2014-Jul-27 01:00N 54°08' W 143°40'0 0.4 1011.7 14.7
2014-Jul-27 00:00N 54°07' W 143°40'0 0.4 1011.5 15.3
2014-Jul-26 23:00N 54°07' W 143°40'1 0.8 1011.3 15.2
2014-Jul-26 22:00N 54°07' W 143°41'0 0.1 1011.1 15.0
2014-Jul-26 21:00N 54°07' W 143°41'0 0.1 1010.9 14.3
2014-Jul-26 19:00N 54°07' W 143°41'0 0.0 1010.7 13.6
2014-Jul-26 18:00N 54°07' W 143°41'2 1.9 1010.5 13.5
2014-Jul-26 17:00N 54°05' W 143°39'0 0.0 1010.4 13.3
2014-Jul-26 16:00N 54°05' W 143°39'1 0.6 1010.2 13.2
2014-Jul-26 15:00N 54°05' W 143°39'2 1.5 1010.0 13.2
2014-Jul-26 14:00N 54°06' W 143°39'1 1.4 1009.7 13.2
2014-Jul-26 13:00N 54°08' W 143°38'1 1.4 1009.5 13.3
2014-Jul-26 12:00N 54°07' W 143°36'0 0.0 1009.5 13.4
2014-Jul-26 11:00N 54°07' W 143°36'3 1.4 1009.6 13.5
2014-Jul-26 09:00N 54°07' W 143°41'1 1.1 1009.5 13.6
2014-Jul-26 08:00N 54°06' W 143°41'0 0.2 1009.5 13.3
2014-Jul-26 06:00N 54°06' W 143°41'1 0.4 1009.5 13.4
2014-Jul-26 03:00N 54°05' W 143°40'2 0.8 1009.1 13.6
2014-Jul-26 01:00N 54°06' W 143°38'0 0.2 1009.2 14.0
2014-Jul-26 00:00N 54°06' W 143°38'1 0.7 1009.0 13.8
2014-Jul-25 23:00N 54°06' W 143°37'0 0.0 1009.0 13.6
2014-Jul-25 22:00N 54°06' W 143°37'2 1.7 1008.9 13.5
2014-Jul-25 21:00N 54°07' W 143°38'0 0.0 1008.8 13.2
2014-Jul-25 20:00N 54°07' W 143°38'1 1.0 1008.8 13.1
2014-Jul-25 19:00N 54°08' W 143°40'1 1.1 1008.8 13.0
2014-Jul-25 18:00N 54°07' W 143°41'1 1.2 1008.6 13.0
2014-Jul-25 17:00N 54°05' W 143°41'1 0.7 1008.7 13.0
2014-Jul-25 15:00N 54°05' W 143°44'3 2.6 1008.5 12.9
2014-Jul-25 14:00N 54°06' W 143°40'0 0.0 1008.6 13.0
2014-Jul-25 13:00N 54°06' W 143°40'1 1.0 1008.9 13.0
2014-Jul-25 12:00N 54°06' W 143°38'1 1.2 1008.9 13.0
2014-Jul-25 11:00N 54°07' W 143°38'0 0.0 1008.8 13.0
2014-Jul-25 08:00N 54°07' W 143°38'0 0.0 1009.2 13.0
2014-Jul-25 07:00N 54°07' W 143°38'1 0.7 1009.5 13.0
2014-Jul-25 06:00N 54°07' W 143°39'0 0.4 1009.4 13.0
2014-Jul-25 05:00N 54°07' W 143°40'1 1.3 1009.5 13.0
2014-Jul-25 04:00N 54°05' W 143°41'0 0.0 1009.8 13.0
2014-Jul-25 03:00N 54°05' W 143°41'1 1.1 1010.1 13.0
2014-Jul-25 02:00N 54°05' W 143°39'2 1.9 1010.5 13.0
2014-Jul-25 01:00N 54°06' W 143°42'1 0.9 1010.9 13.0
2014-Jul-25 00:00N 54°05' W 143°41'2 1.7 1011.3 13.0
2014-Jul-24 23:00N 54°04' W 143°38'1 0.9 1011.6 13.0
2014-Jul-24 22:00N 54°05' W 143°38'0 0.1 1011.9 13.0
2014-Jul-24 21:00N 54°05' W 143°38'1 1.1 1012.2 13.0
2014-Jul-24 20:00N 54°06' W 143°38'0 0.0 1012.5 13.0
2014-Jul-24 19:00N 54°06' W 143°38'2 1.9 1012.7 12.9
2014-Jul-24 18:00N 54°05' W 143°39'2 1.7 1013.1 12.8
2014-Jul-24 17:00N 54°06' W 143°38'1 0.7 1013.5 12.8
2014-Jul-24 16:00N 54°06' W 143°39'0 0.0 1013.9 12.8
2014-Jul-24 15:00N 54°06' W 143°39'1 0.5 1014.1 12.8
2014-Jul-24 14:00N 54°06' W 143°40'0 0.2 1014.4 12.8
2014-Jul-24 13:00N 54°06' W 143°40'0 0.2 1014.7 12.8
2014-Jul-24 12:00N 54°06' W 143°40'0 0.4 1014.9 12.8
2014-Jul-24 11:00N 54°06' W 143°40'1 1.3 1015.4 12.8
2014-Jul-24 10:00N 54°05' W 143°38'0 0.0 1015.5 12.8
2014-Jul-24 09:00N 54°05' W 143°38'1 0.3 1015.8 12.8
2014-Jul-24 07:00N 54°05' W 143°39'0 0.4 1016.3 12.8
2014-Jul-24 06:00N 54°06' W 143°39'0 0.3 1016.5 12.8
2014-Jul-24 05:00N 54°06' W 143°39'1 0.7 1016.5 12.8
2014-Jul-24 04:00N 54°06' W 143°39'0 0.0 1016.9 12.8
2014-Jul-24 03:00N 54°06' W 143°39'1 0.8 1017.2 12.8
2014-Jul-24 02:00N 54°07' W 143°38'0 0.0 1017.6 12.9
2014-Jul-24 01:00N 54°07' W 143°38'1 1.5 1018.0 12.9
2014-Jul-24 00:00N 54°07' W 143°36'0 0.0 1018.6 12.8
2014-Jul-23 23:00N 54°07' W 143°36'0 0.0 1018.7 12.8
2014-Jul-23 22:00N 54°07' W 143°36'1 0.6 1019.0 12.8
2014-Jul-23 21:00N 54°06' W 143°35'3 3.4 1019.0 12.8
2014-Jul-23 20:00N 54°06' W 143°41'0 0.0 1019.2 12.8
2014-Jul-23 18:00N 54°06' W 143°41'2 1.0 1019.5 12.8
2014-Jul-23 16:00N 54°05' W 143°38'0 0.0 1019.9 12.8
2014-Jul-23 15:00N 54°05' W 143°38'1 0.7 1020.1 12.8
2014-Jul-23 14:00N 54°06' W 143°38'1 0.8 1020.1 12.8
2014-Jul-23 13:00N 54°05' W 143°37'1 0.7 1020.2 12.8
2014-Jul-23 12:00N 54°06' W 143°37'2 1.1 1020.2 12.8
2014-Jul-23 10:00N 54°08' W 143°39'0 0.1 1020.8 12.8
2014-Jul-23 08:00N 54°08' W 143°39'2 1.8 1021.0 12.8
2014-Jul-23 07:00N 54°07' W 143°41'0 0.0 1021.4 12.8
2014-Jul-23 06:00N 54°07' W 143°41'1 1.2 1021.7 12.8
2014-Jul-23 05:00N 54°06' W 143°39'0 0.0 1021.9 12.8
2014-Jul-23 04:00N 54°06' W 143°39'1 1.4 1022.2 12.8
2014-Jul-23 03:00N 54°05' W 143°41'1 0.9 1022.7 12.8
2014-Jul-23 02:00N 54°05' W 143°40'0 0.0 1023.1 12.8
2014-Jul-23 01:00N 54°05' W 143°40'1 0.6 1023.2 12.8
2014-Jul-23 00:00N 54°05' W 143°39'1 0.7 1023.7 12.8
2014-Jul-22 23:00N 54°06' W 143°38'1 1.0 1023.6 12.8
2014-Jul-22 22:00N 54°06' W 143°36'1 0.7 1023.7 12.8
2014-Jul-22 21:00N 54°07' W 143°36'1 1.3 1023.5 12.8
2014-Jul-22 20:00N 54°08' W 143°38'1 1.3 1023.5 12.8
2014-Jul-22 19:00N 54°07' W 143°40'0 0.0 1023.5 12.8
2014-Jul-22 17:00N 54°07' W 143°40'2 0.8 1023.2 12.8
2014-Jul-22 15:00N 54°06' W 143°41'0 0.0 1023.3 12.8
2014-Jul-22 14:00N 54°06' W 143°41'2 1.7 1023.0 12.8
2014-Jul-22 13:00N 54°06' W 143°38'0 0.0 1023.0 12.8
2014-Jul-22 12:00N 54°06' W 143°38'0 0.0 1022.9 12.8
2014-Jul-22 10:00N 54°06' W 143°38'1 0.3 1022.8 12.8
2014-Jul-22 07:00N 54°07' W 143°37'1 1.0 1021.8 12.8
2014-Jul-22 06:00N 54°07' W 143°38'1 0.9 1021.2 12.8
2014-Jul-22 05:00N 54°07' W 143°40'0 0.2 1020.9 12.8
2014-Jul-22 04:00N 54°07' W 143°39'0 0.5 1020.5 12.8
2014-Jul-22 03:00N 54°08' W 143°40'3 2.5 1019.7 12.8
2014-Jul-22 02:00N 54°05' W 143°42'0 0.0 1019.4 12.8
2014-Jul-22 01:00N 54°05' W 143°42'0 0.3 1019.2 12.8
2014-Jul-22 00:00N 54°06' W 143°43'1 1.5 1018.7 12.8
2014-Jul-21 23:00N 54°05' W 143°40'2 2.3 1018.2 12.8
2014-Jul-21 22:00N 54°06' W 143°37'0 0.0 1017.7 12.7
2014-Jul-21 21:00N 54°06' W 143°37'0 0.2 1016.7 12.6
2014-Jul-21 20:00N 54°06' W 143°37'0 0.0 1015.8 12.5
2014-Jul-21 19:00N 54°06' W 143°37'1 1.3 1014.7 12.4
2014-Jul-21 18:00N 54°07' W 143°39'1 1.4 1014.3 12.4
2014-Jul-21 17:00N 54°07' W 143°37'3 2.7 1013.9 12.4
2014-Jul-21 16:00N 54°06' W 143°40'0 0.0 1013.4 12.4
2014-Jul-21 15:00N 54°06' W 143°40'0 0.5 1012.8 12.4
2014-Jul-21 14:00N 54°06' W 143°40'2 0.8 1012.4 12.4
2014-Jul-21 12:00N 54°06' W 143°38'0 0.0 1011.7 12.4
2014-Jul-21 10:00N 54°06' W 143°38'2 1.7 1011.1 12.4
2014-Jul-21 09:00N 54°07' W 143°38'1 0.3 1011.0 12.4
2014-Jul-21 07:00N 54°07' W 143°38'1 1.1 1010.8 12.4
2014-Jul-21 06:00N 54°07' W 143°36'0 0.0 1010.6 12.4
2014-Jul-21 05:00N 54°07' W 143°36'2 1.5 1010.1 12.4
2014-Jul-21 04:00N 54°09' W 143°38'0 0.0 1009.9 12.4
2014-Jul-21 03:00N 54°09' W 143°38'2 2.2 1009.9 12.4
2014-Jul-21 02:00N 54°06' W 143°38'0 0.0 1010.1 12.5
2014-Jul-21 01:00N 54°06' W 143°38'1 1.4 1010.6 12.5
2014-Jul-21 00:00N 54°08' W 143°38'0 0.4 1010.9 12.5
2014-Jul-20 23:00N 54°08' W 143°37'1 0.9 1011.4 12.5
2014-Jul-20 22:00N 54°07' W 143°38'2 1.9 1012.0 12.5
2014-Jul-20 21:00N 54°08' W 143°35'2 1.8 1012.2 12.5
2014-Jul-20 20:00N 54°09' W 143°37'0 0.0 1012.7 12.5
2014-Jul-20 18:00N 54°09' W 143°37'   1013.2 12.5
Track history (hours):
 
Tides and Currents Weather Stations Pressure Air Temp Water Temp Dewpoint Dewpoint Depression Visibility Wind Speed Wind Dir Waves Ship Positions

Drifting buoy 46762

Last reported at 2014-Jul-30 18:00 UTC. Time now 2014-Jul-30 19:17 UTC.
Position N 54°06' W 143°38'.

Barometer 1015.4 mb
Water temperature 13.2 ° C

Date/timePositionNaut miles runAvg speedWind from/ knotsBaromVisibWave heightAir tempDewpointWater temp
2014-Jul-30 18:00N 54°06' W 143°38'0 0.0 1015.4 13.2
2014-Jul-30 17:00N 54°06' W 143°38'0 0.5 1015.2 13.2
2014-Jul-30 16:00N 54°05' W 143°38'0 0.5 1015.1 13.3
2014-Jul-30 15:00N 54°05' W 143°37'2 1.7 1014.9 13.3
2014-Jul-30 14:00N 54°06' W 143°40'1 1.4 1014.6 13.4
2014-Jul-30 13:00N 54°05' W 143°41'0 0.0 1014.7 13.4
2014-Jul-30 12:00N 54°05' W 143°41'1 0.3 1014.5 13.4
2014-Jul-30 10:00N 54°05' W 143°41'1 0.4 1014.6 13.4
2014-Jul-30 08:00N 54°06' W 143°41'0 0.4 1014.7 13.5
2014-Jul-30 07:00N 54°05' W 143°41'1 1.1 1014.8 13.5
2014-Jul-30 06:00N 54°06' W 143°39'1 1.3 1014.9 13.5
2014-Jul-30 05:00N 54°06' W 143°41'1 0.5 1014.6 13.5
2014-Jul-30 02:00N 54°06' W 143°43'1 1.0 1014.9 13.5
2014-Jul-30 01:00N 54°06' W 143°42'1 1.1 1014.7 13.5
2014-Jul-30 00:00N 54°05' W 143°42'1 0.8 1014.7 13.5
2014-Jul-29 23:00N 54°05' W 143°41'0 0.0 1014.6 13.6
2014-Jul-29 22:00N 54°05' W 143°41'1 0.3 1014.7 13.6
2014-Jul-29 18:00N 54°06' W 143°42'1 1.4 1014.1 13.6
2014-Jul-29 17:00N 54°06' W 143°39'2 1.9 1013.8 13.8
2014-Jul-29 16:00N 54°07' W 143°42'1 1.2 1013.6 14.0
2014-Jul-29 15:00N 54°07' W 143°41'0 0.0 1013.6 14.1
2014-Jul-29 14:00N 54°07' W 143°41'1 0.5 1013.5 14.3
2014-Jul-29 13:00N 54°07' W 143°41'1 0.7 1013.6 14.4
2014-Jul-29 12:00N 54°07' W 143°42'1 0.2 1013.9 14.4
2014-Jul-29 07:00N 54°06' W 143°42'0 0.1 1015.6 14.4
2014-Jul-29 06:00N 54°06' W 143°42'1 1.5 1015.8 14.5
2014-Jul-29 05:00N 54°06' W 143°40'1 1.0 1015.9 14.6
2014-Jul-29 04:00N 54°06' W 143°42'2 2.2 1015.8 14.7
2014-Jul-29 03:00N 54°07' W 143°38'0 0.0 1016.0 14.7
2014-Jul-29 02:00N 54°07' W 143°38'2 1.7 1016.1 14.7
2014-Jul-29 01:00N 54°07' W 143°41'1 0.8 1016.0 14.7
2014-Jul-29 00:00N 54°07' W 143°40'1 0.8 1015.9 14.7
2014-Jul-28 23:00N 54°07' W 143°41'0 0.2 1016.0 14.6
2014-Jul-28 22:00N 54°07' W 143°42'1 1.2 1015.9 14.5
2014-Jul-28 21:00N 54°06' W 143°43'1 1.0 1015.8 14.3
2014-Jul-28 20:00N 54°07' W 143°42'1 1.1 1015.8 14.2
2014-Jul-28 19:00N 54°06' W 143°43'1 1.4 1015.9 14.0
2014-Jul-28 18:00N 54°05' W 143°41'1 0.4 1015.8 14.2
2014-Jul-28 15:00N 54°06' W 143°41'1 0.5 1015.1 14.4
2014-Jul-28 13:00N 54°07' W 143°40'1 1.0 1014.7 14.3
2014-Jul-28 12:00N 54°08' W 143°41'2 1.6 1014.6 14.4
2014-Jul-28 11:00N 54°08' W 143°44'2 0.8 1014.6 14.8
2014-Jul-28 09:00N 54°08' W 143°41'1 0.5 1014.6 15.2
2014-Jul-28 06:00N 54°07' W 143°40'1 1.0 1014.9 15.2
2014-Jul-28 05:00N 54°07' W 143°42'1 0.5 1014.7 15.5
2014-Jul-28 04:00N 54°07' W 143°41'0 0.0 1014.5 15.6
2014-Jul-28 03:00N 54°07' W 143°41'0 0.3 1014.6 15.5
2014-Jul-28 02:00N 54°07' W 143°41'0 0.4 1014.7 15.1
2014-Jul-28 01:00N 54°07' W 143°41'0 0.4 1014.8 15.0
2014-Jul-28 00:00N 54°07' W 143°40'0 0.1 1014.8 14.8
2014-Jul-27 23:00N 54°07' W 143°40'0 0.4 1014.7 14.6
2014-Jul-27 22:00N 54°07' W 143°40'1 0.6 1014.6 14.6
2014-Jul-27 21:00N 54°06' W 143°39'1 0.7 1014.4 14.4
2014-Jul-27 20:00N 54°07' W 143°41'2 2.2 1014.3 14.3
2014-Jul-27 19:00N 54°08' W 143°38'0 0.0 1014.3 14.4
2014-Jul-27 18:00N 54°08' W 143°38'2 1.9 1014.1 14.2
2014-Jul-27 17:00N 54°07' W 143°40'1 0.9 1013.9 14.0
2014-Jul-27 16:00N 54°07' W 143°42'2 1.6 1013.8 14.0
2014-Jul-27 15:00N 54°06' W 143°39'1 0.7 1013.4 14.0
2014-Jul-27 14:00N 54°07' W 143°40'0 0.1 1013.2 14.0
2014-Jul-27 13:00N 54°07' W 143°40'1 0.9 1013.0 14.1
2014-Jul-27 12:00N 54°07' W 143°42'1 1.3 1012.8 14.2
2014-Jul-27 11:00N 54°06' W 143°41'0 0.0 1012.7 14.4
2014-Jul-27 09:00N 54°06' W 143°41'0 0.1 1012.6 14.8
2014-Jul-27 07:00N 54°06' W 143°40'0 0.2 1012.6 14.9
2014-Jul-27 06:00N 54°06' W 143°40'0 0.4 1012.3 14.9
2014-Jul-27 05:00N 54°06' W 143°39'1 0.6 1012.1 14.9
2014-Jul-27 04:00N 54°06' W 143°40'1 1.1 1011.9 15.1
2014-Jul-27 03:00N 54°06' W 143°38'1 0.7 1011.8 15.0
2014-Jul-27 01:00N 54°08' W 143°40'0 0.4 1011.7 14.7
2014-Jul-27 00:00N 54°07' W 143°40'0 0.4 1011.5 15.3
2014-Jul-26 23:00N 54°07' W 143°40'1 0.8 1011.3 15.2
2014-Jul-26 22:00N 54°07' W 143°41'0 0.1 1011.1 15.0
2014-Jul-26 21:00N 54°07' W 143°41'0 0.1 1010.9 14.3
2014-Jul-26 19:00N 54°07' W 143°41'0 0.0 1010.7 13.6
2014-Jul-26 18:00N 54°07' W 143°41'2 1.9 1010.5 13.5
2014-Jul-26 17:00N 54°05' W 143°39'0 0.0 1010.4 13.3
2014-Jul-26 16:00N 54°05' W 143°39'1 0.6 1010.2 13.2
2014-Jul-26 15:00N 54°05' W 143°39'2 1.5 1010.0 13.2
2014-Jul-26 14:00N 54°06' W 143°39'1 1.4 1009.7 13.2
2014-Jul-26 13:00N 54°08' W 143°38'1 1.4 1009.5 13.3
2014-Jul-26 12:00N 54°07' W 143°36'0 0.0 1009.5 13.4
2014-Jul-26 11:00N 54°07' W 143°36'3 1.4 1009.6 13.5
2014-Jul-26 09:00N 54°07' W 143°41'1 1.1 1009.5 13.6
2014-Jul-26 08:00N 54°06' W 143°41'0 0.2 1009.5 13.3
2014-Jul-26 06:00N 54°06' W 143°41'1 0.4 1009.5 13.4
2014-Jul-26 03:00N 54°05' W 143°40'2 0.8 1009.1 13.6
2014-Jul-26 01:00N 54°06' W 143°38'0 0.2 1009.2 14.0
2014-Jul-26 00:00N 54°06' W 143°38'1 0.7 1009.0 13.8
2014-Jul-25 23:00N 54°06' W 143°37'0 0.0 1009.0 13.6
2014-Jul-25 22:00N 54°06' W 143°37'2 1.7 1008.9 13.5
2014-Jul-25 21:00N 54°07' W 143°38'0 0.0 1008.8 13.2
2014-Jul-25 20:00N 54°07' W 143°38'1 1.0 1008.8 13.1
2014-Jul-25 19:00N 54°08' W 143°40'1 1.1 1008.8 13.0
2014-Jul-25 18:00N 54°07' W 143°41'1 1.2 1008.6 13.0
2014-Jul-25 17:00N 54°05' W 143°41'1 0.7 1008.7 13.0
2014-Jul-25 15:00N 54°05' W 143°44'3 2.6 1008.5 12.9
2014-Jul-25 14:00N 54°06' W 143°40'0 0.0 1008.6 13.0
2014-Jul-25 13:00N 54°06' W 143°40'1 1.0 1008.9 13.0
2014-Jul-25 12:00N 54°06' W 143°38'1 1.2 1008.9 13.0
2014-Jul-25 11:00N 54°07' W 143°38'0 0.0 1008.8 13.0
2014-Jul-25 08:00N 54°07' W 143°38'0 0.0 1009.2 13.0
2014-Jul-25 07:00N 54°07' W 143°38'1 0.7 1009.5 13.0
2014-Jul-25 06:00N 54°07' W 143°39'0 0.4 1009.4 13.0
2014-Jul-25 05:00N 54°07' W 143°40'1 1.3 1009.5 13.0
2014-Jul-25 04:00N 54°05' W 143°41'0 0.0 1009.8 13.0
2014-Jul-25 03:00N 54°05' W 143°41'1 1.1 1010.1 13.0
2014-Jul-25 02:00N 54°05' W 143°39'2 1.9 1010.5 13.0
2014-Jul-25 01:00N 54°06' W 143°42'1 0.9 1010.9 13.0
2014-Jul-25 00:00N 54°05' W 143°41'2 1.7 1011.3 13.0
2014-Jul-24 23:00N 54°04' W 143°38'1 0.9 1011.6 13.0
2014-Jul-24 22:00N 54°05' W 143°38'0 0.1 1011.9 13.0
2014-Jul-24 21:00N 54°05' W 143°38'1 1.1 1012.2 13.0
2014-Jul-24 20:00N 54°06' W 143°38'0 0.0 1012.5 13.0
2014-Jul-24 19:00N 54°06' W 143°38'2 1.9 1012.7 12.9
2014-Jul-24 18:00N 54°05' W 143°39'2 1.7 1013.1 12.8
2014-Jul-24 17:00N 54°06' W 143°38'1 0.7 1013.5 12.8
2014-Jul-24 16:00N 54°06' W 143°39'0 0.0 1013.9 12.8
2014-Jul-24 15:00N 54°06' W 143°39'1 0.5 1014.1 12.8
2014-Jul-24 14:00N 54°06' W 143°40'0 0.2 1014.4 12.8
2014-Jul-24 13:00N 54°06' W 143°40'0 0.2 1014.7 12.8
2014-Jul-24 12:00N 54°06' W 143°40'0 0.4 1014.9 12.8
2014-Jul-24 11:00N 54°06' W 143°40'1 1.3 1015.4 12.8
2014-Jul-24 10:00N 54°05' W 143°38'0 0.0 1015.5 12.8
2014-Jul-24 09:00N 54°05' W 143°38'1 0.3 1015.8 12.8
2014-Jul-24 07:00N 54°05' W 143°39'0 0.4 1016.3 12.8
2014-Jul-24 06:00N 54°06' W 143°39'0 0.3 1016.5 12.8
2014-Jul-24 05:00N 54°06' W 143°39'1 0.7 1016.5 12.8
2014-Jul-24 04:00N 54°06' W 143°39'0 0.0 1016.9 12.8
2014-Jul-24 03:00N 54°06' W 143°39'1 0.8 1017.2 12.8
2014-Jul-24 02:00N 54°07' W 143°38'0 0.0 1017.6 12.9
2014-Jul-24 01:00N 54°07' W 143°38'1 1.5 1018.0 12.9
2014-Jul-24 00:00N 54°07' W 143°36'0 0.0 1018.6 12.8
2014-Jul-23 23:00N 54°07' W 143°36'0 0.0 1018.7 12.8
2014-Jul-23 22:00N 54°07' W 143°36'1 0.6 1019.0 12.8
2014-Jul-23 21:00N 54°06' W 143°35'3 3.4 1019.0 12.8
2014-Jul-23 20:00N 54°06' W 143°41'0 0.0 1019.2 12.8
2014-Jul-23 18:00N 54°06' W 143°41'2 1.0 1019.5 12.8
2014-Jul-23 16:00N 54°05' W 143°38'0 0.0 1019.9 12.8
2014-Jul-23 15:00N 54°05' W 143°38'1 0.7 1020.1 12.8
2014-Jul-23 14:00N 54°06' W 143°38'1 0.8 1020.1 12.8
2014-Jul-23 13:00N 54°05' W 143°37'1 0.7 1020.2 12.8
2014-Jul-23 12:00N 54°06' W 143°37'2 1.1 1020.2 12.8
2014-Jul-23 10:00N 54°08' W 143°39'0 0.1 1020.8 12.8
2014-Jul-23 08:00N 54°08' W 143°39'2 1.8 1021.0 12.8
2014-Jul-23 07:00N 54°07' W 143°41'0 0.0 1021.4 12.8
2014-Jul-23 06:00N 54°07' W 143°41'1 1.2 1021.7 12.8
2014-Jul-23 05:00N 54°06' W 143°39'0 0.0 1021.9 12.8
2014-Jul-23 04:00N 54°06' W 143°39'1 1.4 1022.2 12.8
2014-Jul-23 03:00N 54°05' W 143°41'1 0.9 1022.7 12.8
2014-Jul-23 02:00N 54°05' W 143°40'0 0.0 1023.1 12.8
2014-Jul-23 01:00N 54°05' W 143°40'1 0.6 1023.2 12.8
2014-Jul-23 00:00N 54°05' W 143°39'1 0.7 1023.7 12.8
2014-Jul-22 23:00N 54°06' W 143°38'1 1.0 1023.6 12.8
2014-Jul-22 22:00N 54°06' W 143°36'1 0.7 1023.7 12.8
2014-Jul-22 21:00N 54°07' W 143°36'1 1.3 1023.5 12.8
2014-Jul-22 20:00N 54°08' W 143°38'1 1.3 1023.5 12.8
2014-Jul-22 19:00N 54°07' W 143°40'0 0.0 1023.5 12.8
2014-Jul-22 17:00N 54°07' W 143°40'2 0.8 1023.2 12.8
2014-Jul-22 15:00N 54°06' W 143°41'0 0.0 1023.3 12.8
2014-Jul-22 14:00N 54°06' W 143°41'2 1.7 1023.0 12.8
2014-Jul-22 13:00N 54°06' W 143°38'0 0.0 1023.0 12.8
2014-Jul-22 12:00N 54°06' W 143°38'0 0.0 1022.9 12.8
2014-Jul-22 10:00N 54°06' W 143°38'1 0.3 1022.8 12.8
2014-Jul-22 07:00N 54°07' W 143°37'1 1.0 1021.8 12.8
2014-Jul-22 06:00N 54°07' W 143°38'1 0.9 1021.2 12.8
2014-Jul-22 05:00N 54°07' W 143°40'0 0.2 1020.9 12.8
2014-Jul-22 04:00N 54°07' W 143°39'0 0.5 1020.5 12.8
2014-Jul-22 03:00N 54°08' W 143°40'3 2.5 1019.7 12.8
2014-Jul-22 02:00N 54°05' W 143°42'0 0.0 1019.4 12.8
2014-Jul-22 01:00N 54°05' W 143°42'0 0.3 1019.2 12.8
2014-Jul-22 00:00N 54°06' W 143°43'1 1.5 1018.7 12.8
2014-Jul-21 23:00N 54°05' W 143°40'2 2.3 1018.2 12.8
2014-Jul-21 22:00N 54°06' W 143°37'0 0.0 1017.7 12.7
2014-Jul-21 21:00N 54°06' W 143°37'0 0.2 1016.7 12.6
2014-Jul-21 20:00N 54°06' W 143°37'0 0.0 1015.8 12.5
2014-Jul-21 19:00N 54°06' W 143°37'1 1.3 1014.7 12.4
2014-Jul-21 18:00N 54°07' W 143°39'1 1.4 1014.3 12.4
2014-Jul-21 17:00N 54°07' W 143°37'3 2.7 1013.9 12.4
2014-Jul-21 16:00N 54°06' W 143°40'0 0.0 1013.4 12.4
2014-Jul-21 15:00N 54°06' W 143°40'0 0.5 1012.8 12.4
2014-Jul-21 14:00N 54°06' W 143°40'2 0.8 1012.4 12.4
2014-Jul-21 12:00N 54°06' W 143°38'0 0.0 1011.7 12.4
2014-Jul-21 10:00N 54°06' W 143°38'2 1.7 1011.1 12.4
2014-Jul-21 09:00N 54°07' W 143°38'1 0.3 1011.0 12.4
2014-Jul-21 07:00N 54°07' W 143°38'1 1.1 1010.8 12.4
2014-Jul-21 06:00N 54°07' W 143°36'0 0.0 1010.6 12.4
2014-Jul-21 05:00N 54°07' W 143°36'2 1.5 1010.1 12.4
2014-Jul-21 04:00N 54°09' W 143°38'0 0.0 1009.9 12.4
2014-Jul-21 03:00N 54°09' W 143°38'2 2.2 1009.9 12.4
2014-Jul-21 02:00N 54°06' W 143°38'0 0.0 1010.1 12.5
2014-Jul-21 01:00N 54°06' W 143°38'1 1.4 1010.6 12.5
2014-Jul-21 00:00N 54°08' W 143°38'0 0.4 1010.9 12.5
2014-Jul-20 23:00N 54°08' W 143°37'1 0.9 1011.4 12.5
2014-Jul-20 22:00N 54°07' W 143°38'2 1.9 1012.0 12.5
2014-Jul-20 21:00N 54°08' W 143°35'2 1.8 1012.2 12.5
2014-Jul-20 20:00N 54°09' W 143°37'0 0.0 1012.7 12.5
2014-Jul-20 18:00N 54°09' W 143°37'   1013.2 12.5

Dump ship's entire track history